sensor_id;sensor_type;location;lat;lon;timestamp;temperature;humidity
24686;DHT22;12804;51.176;4.452;2024-01-10T00:01:59;-2.80;99.90
24686;DHT22;12804;51.176;4.452;2024-01-10T00:04:25;-2.80;99.90
24686;DHT22;12804;51.176;4.452;2024-01-10T00:06:51;-2.70;99.90
24686;DHT22;12804;51.176;4.452;2024-01-10T00:09:18;-2.70;99.90
24686;DHT22;12804;51.176;4.452;2024-01-10T00:11:44;-2.90;99.90
24686;DHT22;12804;51.176;4.452;2024-01-10T00:14:10;-2.90;1.00
24686;DHT22;12804;51.176;4.452;2024-01-10T00:16:36;-2.90;1.00
24686;DHT22;12804;51.176;4.452;2024-01-10T00:19:02;-2.70;99.90
24686;DHT22;12804;51.176;4.452;2024-01-10T00:21:28;-2.70;26.10
24686;DHT22;12804;51.176;4.452;2024-01-10T00:23:55;-2.70;99.90
24686;DHT22;12804;51.176;4.452;2024-01-10T00:26:20;-2.70;99.90
24686;DHT22;12804;51.176;4.452;2024-01-10T00:28:46;-2.80;99.90
24686;DHT22;12804;51.176;4.452;2024-01-10T00:31:13;-2.80;99.90
24686;DHT22;12804;51.176;4.452;2024-01-10T00:33:39;-2.80;99.90
24686;DHT22;12804;51.176;4.452;2024-01-10T00:36:05;-2.80;1.00
24686;DHT22;12804;51.176;4.452;2024-01-10T00:38:32;-2.80;99.90
24686;DHT22;12804;51.176;4.452;2024-01-10T00:40:57;-2.90;1.00
24686;DHT22;12804;51.176;4.452;2024-01-10T00:43:23;-3.00;1.00
24686;DHT22;12804;51.176;4.452;2024-01-10T00:45:49;-3.00;1.00
24686;DHT22;12804;51.176;4.452;2024-01-10T00:48:15;-3.00;1.00
24686;DHT22;12804;51.176;4.452;2024-01-10T00:50:43;-3.00;1.00
24686;DHT22;12804;51.176;4.452;2024-01-10T00:53:10;-2.90;1.00
24686;DHT22;12804;51.176;4.452;2024-01-10T00:55:36;-2.90;1.00
24686;DHT22;12804;51.176;4.452;2024-01-10T00:58:01;-2.90;99.90
24686;DHT22;12804;51.176;4.452;2024-01-10T01:00:27;-3.00;99.90
24686;DHT22;12804;51.176;4.452;2024-01-10T01:02:53;-3.00;1.00
24686;DHT22;12804;51.176;4.452;2024-01-10T01:05:19;-3.10;1.00
24686;DHT22;12804;51.176;4.452;2024-01-10T01:07:45;-3.10;1.00
24686;DHT22;12804;51.176;4.452;2024-01-10T01:10:10;-2.90;1.00
24686;DHT22;12804;51.176;4.452;2024-01-10T01:12:36;-2.90;1.00
24686;DHT22;12804;51.176;4.452;2024-01-10T01:15:02;-2.90;99.90
24686;DHT22;12804;51.176;4.452;2024-01-10T01:17:28;-2.90;1.00
24686;DHT22;12804;51.176;4.452;2024-01-10T01:19:54;-3.00;1.00
24686;DHT22;12804;51.176;4.452;2024-01-10T01:22:20;-3.10;1.00
24686;DHT22;12804;51.176;4.452;2024-01-10T01:24:45;-3.20;1.00
24686;DHT22;12804;51.176;4.452;2024-01-10T01:27:12;-3.20;99.90
24686;DHT22;12804;51.176;4.452;2024-01-10T01:29:38;-3.10;20.30
24686;DHT22;12804;51.176;4.452;2024-01-10T01:32:04;-3.20;1.00
24686;DHT22;12804;51.176;4.452;2024-01-10T01:34:30;-3.20;1.00
24686;DHT22;12804;51.176;4.452;2024-01-10T01:36:56;-3.20;99.90
24686;DHT22;12804;51.176;4.452;2024-01-10T01:39:21;-3.10;99.90
24686;DHT22;12804;51.176;4.452;2024-01-10T01:41:47;-3.00;99.90
24686;DHT22;12804;51.176;4.452;2024-01-10T01:44:13;-3.10;1.00
24686;DHT22;12804;51.176;4.452;2024-01-10T01:46:39;-3.20;36.50
24686;DHT22;12804;51.176;4.452;2024-01-10T01:49:10;-3.20;1.00
24686;DHT22;12804;51.176;4.452;2024-01-10T01:51:36;-3.30;99.90
24686;DHT22;12804;51.176;4.452;2024-01-10T01:54:06;-3.30;1.00
24686;DHT22;12804;51.176;4.452;2024-01-10T01:56:31;-3.30;1.00
24686;DHT22;12804;51.176;4.452;2024-01-10T01:58:57;-3.20;99.90
24686;DHT22;12804;51.176;4.452;2024-01-10T02:01:23;-3.10;99.90
24686;DHT22;12804;51.176;4.452;2024-01-10T02:03:49;-3.20;99.90
24686;DHT22;12804;51.176;4.452;2024-01-10T02:06:15;-3.20;1.00
24686;DHT22;12804;51.176;4.452;2024-01-10T02:08:41;-3.20;1.00
24686;DHT22;12804;51.176;4.452;2024-01-10T02:11:06;-3.30;1.00
24686;DHT22;12804;51.176;4.452;2024-01-10T02:13:33;-3.30;1.00
24686;DHT22;12804;51.176;4.452;2024-01-10T02:15:59;-3.20;1.00
24686;DHT22;12804;51.176;4.452;2024-01-10T02:18:25;-3.20;99.90
24686;DHT22;12804;51.176;4.452;2024-01-10T02:20:51;-3.20;99.90
24686;DHT22;12804;51.176;4.452;2024-01-10T02:23:17;-3.20;95.80
24686;DHT22;12804;51.176;4.452;2024-01-10T02:25:44;-3.30;67.40
24686;DHT22;12804;51.176;4.452;2024-01-10T02:28:10;-3.40;99.90
24686;DHT22;12804;51.176;4.452;2024-01-10T02:30:36;-3.30;1.00
24686;DHT22;12804;51.176;4.452;2024-01-10T02:33:02;-3.30;99.90
24686;DHT22;12804;51.176;4.452;2024-01-10T02:35:28;-3.30;84.40
24686;DHT22;12804;51.176;4.452;2024-01-10T02:37:55;-3.40;99.90
24686;DHT22;12804;51.176;4.452;2024-01-10T02:40:21;-3.30;99.90
24686;DHT22;12804;51.176;4.452;2024-01-10T02:42:47;-3.30;9.90
24686;DHT22;12804;51.176;4.452;2024-01-10T02:45:13;-3.40;99.90
24686;DHT22;12804;51.176;4.452;2024-01-10T02:47:39;-3.40;1.00
24686;DHT22;12804;51.176;4.452;2024-01-10T02:50:05;-3.20;71.20
24686;DHT22;12804;51.176;4.452;2024-01-10T02:52:31;-3.20;1.00
24686;DHT22;12804;51.176;4.452;2024-01-10T02:54:57;-3.30;1.00
24686;DHT22;12804;51.176;4.452;2024-01-10T02:57:23;-3.30;29.80
24686;DHT22;12804;51.176;4.452;2024-01-10T02:59:49;-3.40;1.00
24686;DHT22;12804;51.176;4.452;2024-01-10T03:02:15;-3.40;58.60
24686;DHT22;12804;51.176;4.452;2024-01-10T03:04:41;-3.40;99.90
24686;DHT22;12804;51.176;4.452;2024-01-10T03:07:07;-3.40;99.90
24686;DHT22;12804;51.176;4.452;2024-01-10T03:09:33;-3.50;99.90
24686;DHT22;12804;51.176;4.452;2024-01-10T03:11:59;-3.50;1.00
24686;DHT22;12804;51.176;4.452;2024-01-10T03:14:24;-3.50;99.90
24686;DHT22;12804;51.176;4.452;2024-01-10T03:16:50;-3.40;1.00
24686;DHT22;12804;51.176;4.452;2024-01-10T03:19:16;-3.40;1.00
24686;DHT22;12804;51.176;4.452;2024-01-10T03:21:42;-3.40;1.00
24686;DHT22;12804;51.176;4.452;2024-01-10T03:24:07;-3.50;1.00
24686;DHT22;12804;51.176;4.452;2024-01-10T03:26:34;-3.60;93.00
24686;DHT22;12804;51.176;4.452;2024-01-10T03:29:00;-3.60;99.90
24686;DHT22;12804;51.176;4.452;2024-01-10T03:31:27;-3.50;1.00
24686;DHT22;12804;51.176;4.452;2024-01-10T03:33:54;-3.50;1.00
24686;DHT22;12804;51.176;4.452;2024-01-10T03:36:20;-3.50;99.90
24686;DHT22;12804;51.176;4.452;2024-01-10T03:38:46;-3.50;99.90
24686;DHT22;12804;51.176;4.452;2024-01-10T03:41:16;-3.60;1.00
24686;DHT22;12804;51.176;4.452;2024-01-10T03:43:42;-3.50;1.00
24686;DHT22;12804;51.176;4.452;2024-01-10T03:46:08;-3.50;99.90
24686;DHT22;12804;51.176;4.452;2024-01-10T03:48:34;-3.50;99.90
24686;DHT22;12804;51.176;4.452;2024-01-10T03:51:00;-3.50;97.30
24686;DHT22;12804;51.176;4.452;2024-01-10T03:53:27;-3.50;38.10
24686;DHT22;12804;51.176;4.452;2024-01-10T03:55:52;-3.50;1.00
24686;DHT22;12804;51.176;4.452;2024-01-10T03:58:18;-3.50;43.80
24686;DHT22;12804;51.176;4.452;2024-01-10T04:00:44;-3.50;1.00
24686;DHT22;12804;51.176;4.452;2024-01-10T04:03:10;-3.50;99.90
24686;DHT22;12804;51.176;4.452;2024-01-10T04:05:35;-3.50;99.90
24686;DHT22;12804;51.176;4.452;2024-01-10T04:08:01;-3.40;99.90
24686;DHT22;12804;51.176;4.452;2024-01-10T04:10:28;-3.30;1.00
24686;DHT22;12804;51.176;4.452;2024-01-10T04:12:53;-3.30;1.00
24686;DHT22;12804;51.176;4.452;2024-01-10T04:15:19;-3.40;99.90
24686;DHT22;12804;51.176;4.452;2024-01-10T04:17:45;-3.40;1.00
24686;DHT22;12804;51.176;4.452;2024-01-10T04:20:11;-3.40;1.00
24686;DHT22;12804;51.176;4.452;2024-01-10T04:22:36;-3.40;1.00
24686;DHT22;12804;51.176;4.452;2024-01-10T04:25:06;-3.40;1.00
24686;DHT22;12804;51.176;4.452;2024-01-10T04:27:32;-3.40;1.00
24686;DHT22;12804;51.176;4.452;2024-01-10T04:29:58;-3.40;1.00
24686;DHT22;12804;51.176;4.452;2024-01-10T04:32:23;-3.40;1.00
24686;DHT22;12804;51.176;4.452;2024-01-10T04:34:49;-3.50;1.00
24686;DHT22;12804;51.176;4.452;2024-01-10T04:37:15;-3.60;1.00
24686;DHT22;12804;51.176;4.452;2024-01-10T04:39:41;-3.60;99.90
24686;DHT22;12804;51.176;4.452;2024-01-10T04:42:08;-3.50;1.00
24686;DHT22;12804;51.176;4.452;2024-01-10T04:44:36;-3.60;1.00
24686;DHT22;12804;51.176;4.452;2024-01-10T04:47:02;-3.70;99.90
24686;DHT22;12804;51.176;4.452;2024-01-10T04:49:28;-3.80;99.90
24686;DHT22;12804;51.176;4.452;2024-01-10T04:51:54;-3.70;1.00
24686;DHT22;12804;51.176;4.452;2024-01-10T04:54:20;-3.70;1.00
24686;DHT22;12804;51.176;4.452;2024-01-10T04:56:46;-3.70;1.00
24686;DHT22;12804;51.176;4.452;2024-01-10T04:59:12;-3.70;1.00
24686;DHT22;12804;51.176;4.452;2024-01-10T05:01:38;-3.60;1.00
24686;DHT22;12804;51.176;4.452;2024-01-10T05:04:04;-3.60;39.90
24686;DHT22;12804;51.176;4.452;2024-01-10T05:06:29;-3.70;99.90
24686;DHT22;12804;51.176;4.452;2024-01-10T05:08:55;-3.60;1.00
24686;DHT22;12804;51.176;4.452;2024-01-10T05:11:25;-3.50;1.00
24686;DHT22;12804;51.176;4.452;2024-01-10T05:13:51;-3.50;71.90
24686;DHT22;12804;51.176;4.452;2024-01-10T05:16:17;-3.50;1.00
24686;DHT22;12804;51.176;4.452;2024-01-10T05:18:43;-3.70;90.90
24686;DHT22;12804;51.176;4.452;2024-01-10T05:21:09;-3.70;1.00
24686;DHT22;12804;51.176;4.452;2024-01-10T05:23:35;-3.50;99.90
24686;DHT22;12804;51.176;4.452;2024-01-10T05:26:01;-3.50;99.90
24686;DHT22;12804;51.176;4.452;2024-01-10T05:28:27;-3.50;1.00
24686;DHT22;12804;51.176;4.452;2024-01-10T05:30:53;-3.40;1.00
24686;DHT22;12804;51.176;4.452;2024-01-10T05:33:19;-3.60;95.30
24686;DHT22;12804;51.176;4.452;2024-01-10T05:35:45;-3.80;1.00
24686;DHT22;12804;51.176;4.452;2024-01-10T05:38:12;-3.90;1.00
24686;DHT22;12804;51.176;4.452;2024-01-10T05:40:37;-4.00;1.00
24686;DHT22;12804;51.176;4.452;2024-01-10T05:43:03;-3.90;99.90
24686;DHT22;12804;51.176;4.452;2024-01-10T05:45:29;-3.80;1.00
24686;DHT22;12804;51.176;4.452;2024-01-10T05:47:56;-3.70;1.00
24686;DHT22;12804;51.176;4.452;2024-01-10T05:50:22;-3.70;1.00
24686;DHT22;12804;51.176;4.452;2024-01-10T05:52:48;-3.80;1.00
24686;DHT22;12804;51.176;4.452;2024-01-10T05:55:13;-3.70;1.00
24686;DHT22;12804;51.176;4.452;2024-01-10T05:57:39;-3.70;39.80
24686;DHT22;12804;51.176;4.452;2024-01-10T06:00:06;-3.70;27.30
24686;DHT22;12804;51.176;4.452;2024-01-10T06:02:37;-3.90;1.00
24686;DHT22;12804;51.176;4.452;2024-01-10T06:05:07;-3.90;1.00
24686;DHT22;12804;51.176;4.452;2024-01-10T06:07:38;-3.90;1.00
24686;DHT22;12804;51.176;4.452;2024-01-10T06:10:04;-3.90;96.30
24686;DHT22;12804;51.176;4.452;2024-01-10T06:12:30;-3.80;1.00
24686;DHT22;12804;51.176;4.452;2024-01-10T06:14:56;-3.70;1.00
24686;DHT22;12804;51.176;4.452;2024-01-10T06:17:23;-3.80;99.90
24686;DHT22;12804;51.176;4.452;2024-01-10T06:19:49;-3.80;1.00
24686;DHT22;12804;51.176;4.452;2024-01-10T06:22:16;-3.80;1.00
24686;DHT22;12804;51.176;4.452;2024-01-10T06:24:43;-3.80;1.00
24686;DHT22;12804;51.176;4.452;2024-01-10T06:27:09;-3.70;1.00
24686;DHT22;12804;51.176;4.452;2024-01-10T06:29:36;-3.80;1.00
24686;DHT22;12804;51.176;4.452;2024-01-10T06:32:06;-3.90;99.90
24686;DHT22;12804;51.176;4.452;2024-01-10T06:34:32;-3.80;1.00
24686;DHT22;12804;51.176;4.452;2024-01-10T06:36:58;-3.80;1.00
24686;DHT22;12804;51.176;4.452;2024-01-10T06:39:24;-3.90;99.90
24686;DHT22;12804;51.176;4.452;2024-01-10T06:41:50;-3.90;99.90
24686;DHT22;12804;51.176;4.452;2024-01-10T06:44:16;-3.70;1.00
24686;DHT22;12804;51.176;4.452;2024-01-10T06:46:45;-3.80;99.90
24686;DHT22;12804;51.176;4.452;2024-01-10T06:49:11;-3.80;93.50
24686;DHT22;12804;51.176;4.452;2024-01-10T06:51:38;-3.70;29.10
24686;DHT22;12804;51.176;4.452;2024-01-10T06:54:04;-3.80;99.90
24686;DHT22;12804;51.176;4.452;2024-01-10T06:56:33;-3.80;99.90
24686;DHT22;12804;51.176;4.452;2024-01-10T06:59:00;-3.80;99.90
24686;DHT22;12804;51.176;4.452;2024-01-10T07:01:26;-3.80;1.00
24686;DHT22;12804;51.176;4.452;2024-01-10T07:03:53;-3.90;1.00
24686;DHT22;12804;51.176;4.452;2024-01-10T07:06:21;-3.50;1.00
24686;DHT22;12804;51.176;4.452;2024-01-10T07:08:48;-3.60;99.90
24686;DHT22;12804;51.176;4.452;2024-01-10T07:11:15;-3.70;1.00
24686;DHT22;12804;51.176;4.452;2024-01-10T07:13:41;-3.70;99.90
24686;DHT22;12804;51.176;4.452;2024-01-10T07:16:08;-3.80;99.90
24686;DHT22;12804;51.176;4.452;2024-01-10T07:18:33;-3.80;1.00
24686;DHT22;12804;51.176;4.452;2024-01-10T07:20:59;-3.80;1.00
24686;DHT22;12804;51.176;4.452;2024-01-10T07:23:26;-3.90;1.00
24686;DHT22;12804;51.176;4.452;2024-01-10T07:25:52;-3.90;1.00
24686;DHT22;12804;51.176;4.452;2024-01-10T07:28:18;-3.90;1.00
24686;DHT22;12804;51.176;4.452;2024-01-10T07:30:44;-3.80;1.00
24686;DHT22;12804;51.176;4.452;2024-01-10T07:33:11;-3.80;1.00
24686;DHT22;12804;51.176;4.452;2024-01-10T07:35:37;-1.10;1.00
24686;DHT22;12804;51.176;4.452;2024-01-10T07:38:07;-1.90;1.00
24686;DHT22;12804;51.176;4.452;2024-01-10T07:40:35;-2.50;99.90
24686;DHT22;12804;51.176;4.452;2024-01-10T07:43:02;-3.00;99.90
24686;DHT22;12804;51.176;4.452;2024-01-10T07:45:28;-3.30;1.00
24686;DHT22;12804;51.176;4.452;2024-01-10T07:47:54;-3.60;1.00
24686;DHT22;12804;51.176;4.452;2024-01-10T07:50:20;-3.60;29.50
24686;DHT22;12804;51.176;4.452;2024-01-10T07:52:46;-3.60;1.00
24686;DHT22;12804;51.176;4.452;2024-01-10T07:55:12;-3.60;29.20
24686;DHT22;12804;51.176;4.452;2024-01-10T07:57:38;-3.70;99.90
24686;DHT22;12804;51.176;4.452;2024-01-10T08:00:05;-3.80;1.00
24686;DHT22;12804;51.176;4.452;2024-01-10T08:02:34;-3.80;99.90
24686;DHT22;12804;51.176;4.452;2024-01-10T08:05:03;-3.80;1.00
24686;DHT22;12804;51.176;4.452;2024-01-10T08:07:36;-3.80;99.90
24686;DHT22;12804;51.176;4.452;2024-01-10T08:10:09;-3.80;99.90
24686;DHT22;12804;51.176;4.452;2024-01-10T08:12:36;-3.70;1.00
24686;DHT22;12804;51.176;4.452;2024-01-10T08:15:02;-3.80;1.00
24686;DHT22;12804;51.176;4.452;2024-01-10T08:17:28;-3.90;99.90
24686;DHT22;12804;51.176;4.452;2024-01-10T08:19:54;-3.80;99.90
24686;DHT22;12804;51.176;4.452;2024-01-10T08:22:20;-3.80;99.90
24686;DHT22;12804;51.176;4.452;2024-01-10T08:24:46;-3.90;99.90
24686;DHT22;12804;51.176;4.452;2024-01-10T08:27:15;-4.00;1.00
24686;DHT22;12804;51.176;4.452;2024-01-10T08:29:42;-3.80;1.00
24686;DHT22;12804;51.176;4.452;2024-01-10T08:32:08;-3.70;94.60
24686;DHT22;12804;51.176;4.452;2024-01-10T08:34:34;-3.60;99.90
24686;DHT22;12804;51.176;4.452;2024-01-10T08:37:00;-3.70;1.00
24686;DHT22;12804;51.176;4.452;2024-01-10T08:39:25;-3.70;1.00
24686;DHT22;12804;51.176;4.452;2024-01-10T08:41:54;-3.70;1.00
24686;DHT22;12804;51.176;4.452;2024-01-10T08:44:20;-3.60;99.90
24686;DHT22;12804;51.176;4.452;2024-01-10T08:46:46;-3.60;99.90
24686;DHT22;12804;51.176;4.452;2024-01-10T08:49:13;-3.60;1.00
24686;DHT22;12804;51.176;4.452;2024-01-10T08:51:39;-3.60;1.00
24686;DHT22;12804;51.176;4.452;2024-01-10T08:54:06;-3.60;99.90
24686;DHT22;12804;51.176;4.452;2024-01-10T08:56:32;-3.50;1.00
24686;DHT22;12804;51.176;4.452;2024-01-10T08:58:58;-3.40;1.00
24686;DHT22;12804;51.176;4.452;2024-01-10T09:01:24;-3.50;99.90
24686;DHT22;12804;51.176;4.452;2024-01-10T09:03:50;-3.40;1.00
24686;DHT22;12804;51.176;4.452;2024-01-10T09:06:15;-3.30;99.90
24686;DHT22;12804;51.176;4.452;2024-01-10T09:08:42;-3.40;1.00
24686;DHT22;12804;51.176;4.452;2024-01-10T09:11:09;-3.40;1.00
24686;DHT22;12804;51.176;4.452;2024-01-10T09:13:35;-3.50;1.00
24686;DHT22;12804;51.176;4.452;2024-01-10T09:16:04;-3.40;99.90
24686;DHT22;12804;51.176;4.452;2024-01-10T09:18:29;-3.40;99.90
24686;DHT22;12804;51.176;4.452;2024-01-10T09:20:55;-3.30;99.90
24686;DHT22;12804;51.176;4.452;2024-01-10T09:23:21;-3.40;11.90
24686;DHT22;12804;51.176;4.452;2024-01-10T09:25:47;-3.40;99.90
24686;DHT22;12804;51.176;4.452;2024-01-10T09:28:13;-3.30;1.00
24686;DHT22;12804;51.176;4.452;2024-01-10T09:30:39;-3.10;1.00
24686;DHT22;12804;51.176;4.452;2024-01-10T09:33:05;-3.10;57.20
24686;DHT22;12804;51.176;4.452;2024-01-10T09:35:31;-3.00;1.00
24686;DHT22;12804;51.176;4.452;2024-01-10T09:37:56;-3.00;1.00
24686;DHT22;12804;51.176;4.452;2024-01-10T09:40:22;-2.90;1.00
24686;DHT22;12804;51.176;4.452;2024-01-10T09:42:51;-2.70;99.90
24686;DHT22;12804;51.176;4.452;2024-01-10T09:45:19;-2.70;1.00
24686;DHT22;12804;51.176;4.452;2024-01-10T09:47:48;-2.60;1.00
24686;DHT22;12804;51.176;4.452;2024-01-10T09:50:15;-2.60;1.00
24686;DHT22;12804;51.176;4.452;2024-01-10T09:52:58;-2.50;1.00
24686;DHT22;12804;51.176;4.452;2024-01-10T09:55:26;-2.40;1.00
24686;DHT22;12804;51.176;4.452;2024-01-10T09:57:54;-2.30;1.00
24686;DHT22;12804;51.176;4.452;2024-01-10T10:00:20;-2.10;1.00
24686;DHT22;12804;51.176;4.452;2024-01-10T10:02:50;-1.70;99.90
24686;DHT22;12804;51.176;4.452;2024-01-10T10:05:17;-1.40;1.00
24686;DHT22;12804;51.176;4.452;2024-01-10T10:07:50;-0.80;1.00
24686;DHT22;12804;51.176;4.452;2024-01-10T10:10:17;-0.10;99.90
24686;DHT22;12804;51.176;4.452;2024-01-10T10:12:51;-0.10;1.00
24686;DHT22;12804;51.176;4.452;2024-01-10T10:15:23;0.00;1.00
24686;DHT22;12804;51.176;4.452;2024-01-10T10:17:51;-0.10;1.00
24686;DHT22;12804;51.176;4.452;2024-01-10T10:20:22;0.60;1.00
24686;DHT22;12804;51.176;4.452;2024-01-10T10:23:01;0.80;1.00
24686;DHT22;12804;51.176;4.452;2024-01-10T10:27:55;0.90;1.00
24686;DHT22;12804;51.176;4.452;2024-01-10T10:30:21;1.30;1.00
24686;DHT22;12804;51.176;4.452;2024-01-10T10:32:48;1.60;1.00
24686;DHT22;12804;51.176;4.452;2024-01-10T10:35:14;1.90;99.90
24686;DHT22;12804;51.176;4.452;2024-01-10T10:37:39;2.00;99.90
24686;DHT22;12804;51.176;4.452;2024-01-10T10:40:06;1.50;99.90
24686;DHT22;12804;51.176;4.452;2024-01-10T10:42:34;1.90;99.90
24686;DHT22;12804;51.176;4.452;2024-01-10T10:45:04;2.70;99.90
24686;DHT22;12804;51.176;4.452;2024-01-10T10:47:35;3.40;99.90
24686;DHT22;12804;51.176;4.452;2024-01-10T10:50:03;3.10;99.90
24686;DHT22;12804;51.176;4.452;2024-01-10T10:52:30;3.40;99.90
24686;DHT22;12804;51.176;4.452;2024-01-10T10:54:58;3.70;99.90
24686;DHT22;12804;51.176;4.452;2024-01-10T10:57:28;4.30;99.90
24686;DHT22;12804;51.176;4.452;2024-01-10T10:59:55;4.00;95.60
24686;DHT22;12804;51.176;4.452;2024-01-10T11:02:22;4.50;71.30
24686;DHT22;12804;51.176;4.452;2024-01-10T11:04:53;3.80;56.90
24686;DHT22;12804;51.176;4.452;2024-01-10T11:07:20;3.50;38.20
24686;DHT22;12804;51.176;4.452;2024-01-10T11:09:47;3.70;43.40
24686;DHT22;12804;51.176;4.452;2024-01-10T11:12:21;3.70;38.70
24686;DHT22;12804;51.176;4.452;2024-01-10T11:18:08;4.40;7.10
24686;DHT22;12804;51.176;4.452;2024-01-10T11:26:03;4.80;1.00
24686;DHT22;12804;51.176;4.452;2024-01-10T11:28:32;4.50;1.00
24686;DHT22;12804;51.176;4.452;2024-01-10T11:30:59;4.30;1.00
24686;DHT22;12804;51.176;4.452;2024-01-10T11:33:31;3.80;1.00
24686;DHT22;12804;51.176;4.452;2024-01-10T11:38:43;3.30;88.50
24686;DHT22;12804;51.176;4.452;2024-01-10T11:41:20;3.30;56.30
24686;DHT22;12804;51.176;4.452;2024-01-10T11:43:46;2.70;36.50
24686;DHT22;12804;51.176;4.452;2024-01-10T11:46:12;2.40;36.30
24686;DHT22;12804;51.176;4.452;2024-01-10T11:48:38;2.40;38.70
24686;DHT22;12804;51.176;4.452;2024-01-10T11:51:05;2.30;61.30
24686;DHT22;12804;51.176;4.452;2024-01-10T11:53:44;2.00;42.80
24686;DHT22;12804;51.176;4.452;2024-01-10T11:56:14;1.80;71.70
24686;DHT22;12804;51.176;4.452;2024-01-10T11:59:03;1.70;87.80
24686;DHT22;12804;51.176;4.452;2024-01-10T12:01:33;1.50;96.60
24686;DHT22;12804;51.176;4.452;2024-01-10T12:04:00;1.60;90.70
24686;DHT22;12804;51.176;4.452;2024-01-10T12:06:26;1.50;92.90
24686;DHT22;12804;51.176;4.452;2024-01-10T12:08:52;1.70;1.00
24686;DHT22;12804;51.176;4.452;2024-01-10T12:11:18;2.50;99.90
24686;DHT22;12804;51.176;4.452;2024-01-10T12:13:44;2.20;99.90
24686;DHT22;12804;51.176;4.452;2024-01-10T12:16:12;2.00;99.90
24686;DHT22;12804;51.176;4.452;2024-01-10T12:18:38;2.00;97.20
24686;DHT22;12804;51.176;4.452;2024-01-10T12:21:04;1.90;96.10
24686;DHT22;12804;51.176;4.452;2024-01-10T12:23:30;1.70;97.20
24686;DHT22;12804;51.176;4.452;2024-01-10T12:26:01;1.70;99.90
24686;DHT22;12804;51.176;4.452;2024-01-10T12:28:26;1.70;99.40
24686;DHT22;12804;51.176;4.452;2024-01-10T12:30:52;1.80;96.90
24686;DHT22;12804;51.176;4.452;2024-01-10T12:33:22;1.60;99.00
24686;DHT22;12804;51.176;4.452;2024-01-10T12:36:09;1.50;99.90
24686;DHT22;12804;51.176;4.452;2024-01-10T12:38:36;1.40;99.90
24686;DHT22;12804;51.176;4.452;2024-01-10T12:41:03;1.30;99.90
24686;DHT22;12804;51.176;4.452;2024-01-10T12:43:30;1.40;99.90
24686;DHT22;12804;51.176;4.452;2024-01-10T12:46:08;1.40;99.90
24686;DHT22;12804;51.176;4.452;2024-01-10T12:48:39;1.60;99.90
24686;DHT22;12804;51.176;4.452;2024-01-10T12:51:11;1.70;99.90
24686;DHT22;12804;51.176;4.452;2024-01-10T12:53:43;1.80;99.90
24686;DHT22;12804;51.176;4.452;2024-01-10T12:56:10;1.70;98.50
24686;DHT22;12804;51.176;4.452;2024-01-10T12:58:40;1.60;99.30
24686;DHT22;12804;51.176;4.452;2024-01-10T13:01:09;1.70;98.10
24686;DHT22;12804;51.176;4.452;2024-01-10T13:03:35;1.40;99.90
24686;DHT22;12804;51.176;4.452;2024-01-10T13:06:01;1.40;99.90
24686;DHT22;12804;51.176;4.452;2024-01-10T13:08:27;1.50;99.90
24686;DHT22;12804;51.176;4.452;2024-01-10T13:10:53;1.60;99.90
24686;DHT22;12804;51.176;4.452;2024-01-10T13:13:19;1.70;99.90
24686;DHT22;12804;51.176;4.452;2024-01-10T13:15:47;1.70;99.90
24686;DHT22;12804;51.176;4.452;2024-01-10T13:18:13;1.70;99.90
24686;DHT22;12804;51.176;4.452;2024-01-10T13:20:41;1.60;99.90
24686;DHT22;12804;51.176;4.452;2024-01-10T13:23:07;1.60;99.90
24686;DHT22;12804;51.176;4.452;2024-01-10T13:25:34;1.60;99.90
24686;DHT22;12804;51.176;4.452;2024-01-10T13:28:00;1.70;99.90
24686;DHT22;12804;51.176;4.452;2024-01-10T13:30:26;1.50;99.90
24686;DHT22;12804;51.176;4.452;2024-01-10T13:32:52;1.60;99.90
24686;DHT22;12804;51.176;4.452;2024-01-10T13:35:19;1.60;99.90
24686;DHT22;12804;51.176;4.452;2024-01-10T13:37:45;1.60;99.90
24686;DHT22;12804;51.176;4.452;2024-01-10T13:40:12;1.70;99.90
24686;DHT22;12804;51.176;4.452;2024-01-10T13:42:43;1.70;99.90
24686;DHT22;12804;51.176;4.452;2024-01-10T13:45:10;1.80;99.90
24686;DHT22;12804;51.176;4.452;2024-01-10T13:47:39;1.80;99.90
24686;DHT22;12804;51.176;4.452;2024-01-10T13:50:06;1.80;99.90
24686;DHT22;12804;51.176;4.452;2024-01-10T13:52:33;1.80;99.90
24686;DHT22;12804;51.176;4.452;2024-01-10T13:55:00;1.60;99.90
24686;DHT22;12804;51.176;4.452;2024-01-10T13:57:26;1.60;99.90
24686;DHT22;12804;51.176;4.452;2024-01-10T13:59:52;1.50;99.90
24686;DHT22;12804;51.176;4.452;2024-01-10T14:02:24;1.50;99.90
24686;DHT22;12804;51.176;4.452;2024-01-10T14:04:50;1.70;99.90
24686;DHT22;12804;51.176;4.452;2024-01-10T14:07:16;1.80;99.90
24686;DHT22;12804;51.176;4.452;2024-01-10T14:09:42;1.60;99.90
24686;DHT22;12804;51.176;4.452;2024-01-10T14:12:08;1.50;99.90
24686;DHT22;12804;51.176;4.452;2024-01-10T14:14:34;1.50;99.90
24686;DHT22;12804;51.176;4.452;2024-01-10T14:17:00;1.50;99.90
24686;DHT22;12804;51.176;4.452;2024-01-10T14:19:26;1.30;99.90
24686;DHT22;12804;51.176;4.452;2024-01-10T14:21:52;1.50;99.90
24686;DHT22;12804;51.176;4.452;2024-01-10T14:24:18;1.50;99.90
24686;DHT22;12804;51.176;4.452;2024-01-10T14:26:44;1.40;99.90
24686;DHT22;12804;51.176;4.452;2024-01-10T14:29:10;1.40;99.90
24686;DHT22;12804;51.176;4.452;2024-01-10T14:31:36;1.50;99.90
24686;DHT22;12804;51.176;4.452;2024-01-10T14:34:02;1.60;99.90
24686;DHT22;12804;51.176;4.452;2024-01-10T14:36:28;1.60;99.90
24686;DHT22;12804;51.176;4.452;2024-01-10T14:38:54;1.50;99.90
24686;DHT22;12804;51.176;4.452;2024-01-10T14:41:23;1.50;99.90
24686;DHT22;12804;51.176;4.452;2024-01-10T14:43:49;1.50;99.90
24686;DHT22;12804;51.176;4.452;2024-01-10T14:46:15;1.50;99.90
24686;DHT22;12804;51.176;4.452;2024-01-10T14:48:41;1.30;99.90
24686;DHT22;12804;51.176;4.452;2024-01-10T14:51:07;1.30;99.90
24686;DHT22;12804;51.176;4.452;2024-01-10T14:53:33;1.40;99.90
24686;DHT22;12804;51.176;4.452;2024-01-10T14:56:02;1.40;99.90
24686;DHT22;12804;51.176;4.452;2024-01-10T14:58:28;1.20;99.90
24686;DHT22;12804;51.176;4.452;2024-01-10T15:00:54;1.20;99.90
24686;DHT22;12804;51.176;4.452;2024-01-10T15:03:21;1.10;99.90
24686;DHT22;12804;51.176;4.452;2024-01-10T15:05:47;1.20;99.90
24686;DHT22;12804;51.176;4.452;2024-01-10T15:08:13;1.20;99.90
24686;DHT22;12804;51.176;4.452;2024-01-10T15:10:39;1.30;99.90
24686;DHT22;12804;51.176;4.452;2024-01-10T15:13:09;1.30;99.90
24686;DHT22;12804;51.176;4.452;2024-01-10T15:15:37;1.20;99.90
24686;DHT22;12804;51.176;4.452;2024-01-10T15:18:05;1.30;99.90
24686;DHT22;12804;51.176;4.452;2024-01-10T15:20:31;1.20;99.90
24686;DHT22;12804;51.176;4.452;2024-01-10T15:22:57;1.20;99.90
24686;DHT22;12804;51.176;4.452;2024-01-10T15:25:26;1.30;99.90
24686;DHT22;12804;51.176;4.452;2024-01-10T15:27:52;1.30;99.90
24686;DHT22;12804;51.176;4.452;2024-01-10T15:30:18;1.40;99.90
24686;DHT22;12804;51.176;4.452;2024-01-10T15:32:48;1.30;99.90
24686;DHT22;12804;51.176;4.452;2024-01-10T15:35:15;1.30;99.90
24686;DHT22;12804;51.176;4.452;2024-01-10T15:37:41;1.20;99.90
24686;DHT22;12804;51.176;4.452;2024-01-10T15:40:08;1.20;99.90
24686;DHT22;12804;51.176;4.452;2024-01-10T15:42:37;1.20;99.90
24686;DHT22;12804;51.176;4.452;2024-01-10T15:45:03;1.10;99.90
24686;DHT22;12804;51.176;4.452;2024-01-10T15:47:31;1.00;99.90
24686;DHT22;12804;51.176;4.452;2024-01-10T15:49:57;0.90;99.90
24686;DHT22;12804;51.176;4.452;2024-01-10T15:52:23;0.90;99.90
24686;DHT22;12804;51.176;4.452;2024-01-10T15:54:52;0.80;99.90